createdAt,value
2023-01-17T00:00:52.320Z,400.00
2023-01-17T00:01:52.198Z,400.00
2023-01-17T00:02:52.372Z,399.00
2023-01-17T00:03:52.195Z,399.00
2023-01-17T00:04:52.143Z,399.00
2023-01-17T00:05:52.039Z,401.00
2023-01-17T00:06:52.216Z,401.00
2023-01-17T00:07:52.013Z,402.00
2023-01-17T00:08:52.098Z,402.00
2023-01-17T00:09:51.987Z,402.00
2023-01-17T00:10:53.159Z,400.00
2023-01-17T00:11:51.957Z,402.00
2023-01-17T00:12:52.033Z,404.00
2023-01-17T00:13:51.943Z,405.00
2023-01-17T00:14:52.005Z,406.00
2023-01-17T00:15:51.926Z,404.00
2023-01-17T00:18:03.777Z,441.00
2023-01-17T00:19:02.651Z,400.00
2023-01-17T00:20:02.809Z,400.00
2023-01-17T00:21:02.618Z,398.00
2023-01-17T00:22:02.718Z,397.00
2023-01-17T00:23:02.606Z,396.00
2023-01-17T00:24:02.706Z,397.00
2023-01-17T00:25:02.566Z,396.00
2023-01-17T00:26:02.695Z,393.00
2023-01-17T00:27:02.541Z,391.00
2023-01-17T00:28:02.638Z,392.00
2023-01-17T00:29:02.519Z,392.00
2023-01-17T00:30:02.619Z,392.00
2023-01-17T00:31:02.549Z,395.00
2023-01-17T00:32:02.621Z,393.00
2023-01-17T00:33:02.470Z,392.00
2023-01-17T00:34:04.535Z,394.00
2023-01-17T00:35:02.446Z,393.00
2023-01-17T00:36:02.513Z,391.00
2023-01-17T00:37:02.418Z,394.00
2023-01-17T00:38:03.543Z,393.00
2023-01-17T00:39:02.385Z,391.00
2023-01-17T00:40:02.672Z,391.00
2023-01-17T00:41:02.366Z,393.00
2023-01-17T00:42:02.535Z,396.00
2023-01-17T00:43:02.335Z,396.00
2023-01-17T00:44:02.516Z,395.00
2023-01-17T00:45:02.314Z,396.00
2023-01-17T00:46:02.345Z,399.00
2023-01-17T00:47:02.284Z,397.00
2023-01-17T00:48:02.427Z,397.00
2023-01-17T00:49:02.269Z,399.00
2023-01-17T00:50:04.416Z,402.00
2023-01-17T00:51:02.235Z,400.00
2023-01-17T00:52:02.353Z,403.00
2023-01-17T00:53:02.206Z,401.00
2023-01-17T00:54:02.234Z,402.00
2023-01-17T00:55:02.182Z,402.00
2023-01-17T00:56:02.217Z,404.00
2023-01-17T00:57:02.155Z,403.00
2023-01-17T00:58:02.258Z,402.00
2023-01-17T00:59:02.123Z,404.00
2023-01-17T01:00:02.245Z,405.00
2023-01-17T01:01:02.212Z,406.00
2023-01-17T01:02:04.414Z,407.00
2023-01-17T01:03:02.065Z,408.00
2023-01-17T01:04:02.161Z,406.00
2023-01-17T01:05:02.047Z,405.00
2023-01-17T01:06:02.190Z,403.00
2023-01-17T01:07:02.031Z,404.00
2023-01-17T01:08:02.130Z,406.00
2023-01-17T01:09:02.003Z,407.00
2023-01-17T01:10:02.162Z,406.00
2023-01-17T01:11:01.974Z,406.00
2023-01-17T01:12:02.151Z,409.00
2023-01-17T01:13:01.951Z,409.00
2023-01-17T01:14:02.033Z,408.00
2023-01-17T01:15:01.924Z,405.00
2023-01-17T01:16:02.008Z,405.00
2023-01-17T01:17:01.903Z,406.00
2023-01-17T01:18:03.083Z,406.00
2023-01-17T01:19:01.874Z,405.00
2023-01-17T01:20:02.042Z,406.00
2023-01-17T01:21:01.840Z,404.00
2023-01-17T01:22:01.885Z,404.00
2023-01-17T01:23:01.821Z,402.00
2023-01-17T01:24:01.960Z,405.00
2023-01-17T01:25:01.793Z,406.00
2023-01-17T01:26:01.849Z,405.00
2023-01-17T01:27:01.760Z,407.00
2023-01-17T01:28:02.914Z,405.00
2023-01-17T01:29:01.741Z,404.00
2023-01-17T01:30:02.889Z,403.00
2023-01-17T01:31:01.730Z,404.00
2023-01-17T01:32:01.749Z,404.00
2023-01-17T01:33:01.689Z,402.00
2023-01-17T01:34:01.808Z,403.00
2023-01-17T01:35:01.661Z,403.00
2023-01-17T01:36:01.795Z,405.00
2023-01-17T01:37:01.638Z,407.00
2023-01-17T01:38:01.771Z,409.00
2023-01-17T01:39:01.618Z,409.00
2023-01-17T01:40:01.798Z,410.00
2023-01-17T01:41:01.587Z,410.00
2023-01-17T01:42:03.728Z,410.00
2023-01-17T01:43:01.560Z,411.00
2023-01-17T01:44:01.667Z,408.00
2023-01-17T01:45:01.539Z,409.00
2023-01-17T01:46:01.741Z,407.00
2023-01-17T01:47:01.541Z,408.00
2023-01-17T01:48:01.687Z,408.00
2023-01-17T01:49:01.488Z,410.00
2023-01-17T01:50:01.622Z,408.00
2023-01-17T01:51:01.461Z,408.00
2023-01-17T01:52:01.523Z,408.00
2023-01-17T01:53:01.434Z,406.00
2023-01-17T01:54:01.611Z,405.00
2023-01-17T01:55:01.406Z,406.00
2023-01-17T01:56:02.497Z,409.00
2023-01-17T01:57:01.384Z,409.00
2023-01-17T01:58:01.531Z,411.00
2023-01-17T01:59:01.360Z,411.00
2023-01-17T02:00:04.678Z,411.00
2023-01-17T02:01:01.369Z,412.00
2023-01-17T02:02:01.381Z,413.00
2023-01-17T02:03:01.300Z,413.00
2023-01-17T02:04:01.474Z,414.00
2023-01-17T02:05:04.433Z,414.00
2023-01-17T02:06:01.463Z,415.00
2023-01-17T02:07:01.245Z,415.00
2023-01-17T02:08:01.285Z,415.00
2023-01-17T02:09:01.226Z,416.00
2023-01-17T02:10:01.327Z,416.00
2023-01-17T02:11:01.223Z,416.00
2023-01-17T02:12:01.255Z,413.00
2023-01-17T02:13:01.176Z,414.00
2023-01-17T02:14:01.234Z,415.00
2023-01-17T02:15:01.157Z,414.00
2023-01-17T02:16:01.357Z,413.00
2023-01-17T02:17:01.136Z,409.00
2023-01-17T02:18:01.187Z,408.00
2023-01-17T02:19:01.090Z,410.00
2023-01-17T02:20:01.204Z,413.00
2023-01-17T02:21:01.079Z,413.00
2023-01-17T02:22:01.075Z,413.00
2023-01-17T02:23:01.083Z,411.00
2023-01-17T02:24:02.192Z,412.00
2023-01-17T02:25:01.023Z,415.00
2023-01-17T02:26:01.210Z,415.00
2023-01-17T02:27:01.000Z,413.00
2023-01-17T02:28:01.041Z,412.00
2023-01-17T02:29:00.984Z,414.00
2023-01-17T02:30:03.076Z,414.00
2023-01-17T02:31:00.946Z,412.00
2023-01-17T02:32:01.013Z,412.00
2023-01-17T02:33:00.913Z,412.00
2023-01-17T02:34:01.051Z,410.00
2023-01-17T02:35:00.909Z,409.00
2023-01-17T02:36:02.962Z,408.00
2023-01-17T02:37:00.868Z,407.00
2023-01-17T02:38:00.914Z,408.00
2023-01-17T02:39:00.848Z,407.00
2023-01-17T02:40:00.950Z,408.00
2023-01-17T02:41:00.830Z,408.00
2023-01-17T02:42:01.000Z,409.00
2023-01-17T02:43:00.784Z,412.00
2023-01-17T02:44:01.954Z,412.00
2023-01-17T02:45:00.770Z,412.00
2023-01-17T02:46:00.906Z,411.00
2023-01-17T02:47:00.770Z,412.00
2023-01-17T02:48:01.833Z,409.00
2023-01-17T02:49:00.704Z,407.00
2023-01-17T02:50:00.829Z,408.00
2023-01-17T02:51:00.681Z,407.00
2023-01-17T02:52:00.863Z,409.00
2023-01-17T02:53:00.672Z,410.00
2023-01-17T02:54:01.826Z,411.00
2023-01-17T02:55:00.630Z,415.00
2023-01-17T02:56:00.731Z,415.00
2023-01-17T02:57:00.599Z,416.00
2023-01-17T02:58:00.675Z,415.00
2023-01-17T02:59:00.598Z,414.00
2023-01-17T03:00:01.739Z,411.00
2023-01-17T03:01:00.643Z,409.00
2023-01-17T03:02:00.923Z,408.00
2023-01-17T03:03:00.530Z,407.00
2023-01-17T03:04:00.597Z,408.00
2023-01-17T03:05:00.528Z,408.00
2023-01-17T03:06:02.608Z,408.00
2023-01-17T03:07:00.484Z,408.00
2023-01-17T03:08:00.547Z,409.00
2023-01-17T03:09:00.447Z,410.00
2023-01-17T03:10:00.586Z,411.00
2023-01-17T03:11:00.431Z,411.00
2023-01-17T03:12:00.620Z,412.00
2023-01-17T03:13:00.397Z,410.00
2023-01-17T03:14:00.483Z,411.00
2023-01-17T03:15:00.375Z,411.00
2023-01-17T03:16:00.493Z,410.00
2023-01-17T03:17:00.396Z,411.00
2023-01-17T03:18:00.437Z,410.00
2023-01-17T03:19:00.317Z,412.00
2023-01-17T03:20:00.475Z,411.00
2023-01-17T03:21:00.295Z,413.00
2023-01-17T03:22:00.396Z,412.00
2023-01-17T03:23:00.296Z,409.00
2023-01-17T03:24:21.306Z,407.00
2023-01-17T03:25:00.248Z,408.00
2023-01-17T03:26:00.370Z,406.00
2023-01-17T03:27:00.217Z,410.00
2023-01-17T03:28:00.296Z,410.00
2023-01-17T03:29:00.214Z,411.00
2023-01-17T03:30:01.375Z,410.00
2023-01-17T03:31:00.283Z,411.00
2023-01-17T03:32:00.265Z,411.00
2023-01-17T03:33:00.134Z,412.00
2023-01-17T03:34:00.203Z,412.00
2023-01-17T03:35:00.213Z,413.00
2023-01-17T03:36:00.183Z,415.00
2023-01-17T03:37:00.106Z,414.00
2023-01-17T03:38:00.184Z,412.00
2023-01-17T03:39:00.103Z,412.00
2023-01-17T03:40:00.211Z,408.00
2023-01-17T03:41:00.057Z,406.00
2023-01-17T03:42:00.164Z,405.00
2023-01-17T03:43:00.003Z,404.00
2023-01-17T03:44:00.045Z,404.00
2023-01-17T03:44:59.973Z,406.00
2023-01-17T03:46:00.199Z,407.00
2023-01-17T03:46:59.974Z,405.00
2023-01-17T03:48:21.140Z,408.00
2023-01-17T03:48:59.934Z,406.00
2023-01-17T03:49:59.990Z,404.00
2023-01-17T03:50:59.904Z,403.00
2023-01-17T03:52:00.019Z,402.00
2023-01-17T03:52:59.897Z,403.00
2023-01-17T03:54:02.060Z,403.00
2023-01-17T03:54:59.853Z,405.00
2023-01-17T03:55:59.996Z,405.00
2023-01-17T03:56:59.825Z,405.00
2023-01-17T03:58:00.971Z,405.00
2023-01-17T03:59:00.120Z,406.00
2023-01-17T03:59:59.866Z,406.00
2023-01-17T04:00:59.845Z,402.00
2023-01-17T04:01:59.992Z,404.00
2023-01-17T04:02:59.751Z,406.00
2023-01-17T04:03:59.828Z,407.00
2023-01-17T04:04:59.743Z,408.00
2023-01-17T04:06:22.940Z,404.00
2023-01-17T04:06:59.690Z,403.00
2023-01-17T04:07:59.900Z,401.00
2023-01-17T04:08:59.670Z,402.00
2023-01-17T04:09:59.742Z,402.00
2023-01-17T04:10:59.673Z,403.00
2023-01-17T04:12:20.770Z,403.00
2023-01-17T04:12:59.621Z,405.00
2023-01-17T04:13:59.710Z,404.00
2023-01-17T04:14:59.589Z,404.00
2023-01-17T04:15:59.740Z,404.00
2023-01-17T04:16:59.585Z,401.00
2023-01-17T04:18:00.605Z,402.00
2023-01-17T04:18:59.541Z,406.00
2023-01-17T04:19:59.608Z,403.00
2023-01-17T04:20:59.515Z,406.00
2023-01-17T04:21:59.649Z,406.00
2023-01-17T04:22:59.518Z,405.00
2023-01-17T04:23:59.580Z,405.00
2023-01-17T04:24:59.470Z,406.00
2023-01-17T04:26:01.661Z,404.00
2023-01-17T04:26:59.434Z,404.00
2023-01-17T04:27:59.568Z,405.00
2023-01-17T04:28:59.435Z,403.00
2023-01-17T04:29:59.489Z,405.00
2023-01-17T04:30:59.445Z,404.00
2023-01-17T04:32:01.543Z,402.00
2023-01-17T04:32:59.359Z,404.00
2023-01-17T04:33:59.458Z,402.00
2023-01-17T04:34:59.380Z,405.00
2023-01-17T04:35:59.404Z,404.00
2023-01-17T04:36:59.307Z,402.00
2023-01-17T04:38:00.360Z,403.00
2023-01-17T04:38:59.288Z,405.00
2023-01-17T04:39:59.389Z,407.00
2023-01-17T04:40:59.275Z,405.00
2023-01-17T04:41:59.395Z,407.00
2023-01-17T04:42:59.225Z,407.00
2023-01-17T04:43:59.344Z,407.00
2023-01-17T04:44:59.215Z,406.00
2023-01-17T04:45:59.406Z,408.00
2023-01-17T04:46:59.207Z,407.00
2023-01-17T04:47:59.305Z,408.00
2023-01-17T04:48:59.166Z,407.00
2023-01-17T04:49:59.243Z,407.00
2023-01-17T04:50:59.124Z,408.00
2023-01-17T04:51:59.282Z,408.00
2023-01-17T04:52:59.125Z,407.00
2023-01-17T04:53:59.207Z,407.00
2023-01-17T04:54:59.071Z,407.00
2023-01-17T04:55:59.153Z,405.00
2023-01-17T04:56:59.050Z,403.00
2023-01-17T04:57:59.186Z,404.00
2023-01-17T04:58:59.051Z,407.00
2023-01-17T04:59:59.113Z,407.00
2023-01-17T05:00:59.244Z,405.00
2023-01-17T05:01:59.168Z,405.00
2023-01-17T05:02:58.983Z,406.00
2023-01-17T05:03:58.985Z,404.00
2023-01-17T05:04:58.960Z,403.00
2023-01-17T05:06:01.116Z,401.00
2023-01-17T05:06:58.912Z,404.00
2023-01-17T05:07:59.054Z,405.00
2023-01-17T05:08:58.892Z,406.00
2023-01-17T05:09:58.991Z,409.00
2023-01-17T05:10:58.897Z,410.00
2023-01-17T05:12:00.061Z,413.00
2023-01-17T05:12:58.841Z,412.00
2023-01-17T05:13:58.859Z,412.00
2023-01-17T05:14:58.828Z,411.00
2023-01-17T05:15:58.909Z,415.00
2023-01-17T05:16:58.814Z,414.00
2023-01-17T05:17:58.932Z,410.00
2023-01-17T05:18:58.779Z,410.00
2023-01-17T05:19:58.868Z,410.00
2023-01-17T05:20:58.735Z,409.00
2023-01-17T05:21:58.791Z,409.00
2023-01-17T05:22:58.731Z,409.00
2023-01-17T05:25:08.222Z,469.00
2023-01-17T05:26:08.021Z,418.00
2023-01-17T05:27:08.157Z,412.00
2023-01-17T05:28:08.015Z,409.00
2023-01-17T05:29:31.061Z,408.00
2023-01-17T05:30:07.962Z,407.00
2023-01-17T05:31:08.086Z,408.00
2023-01-17T05:32:07.950Z,403.00
2023-01-17T05:33:08.059Z,404.00
2023-01-17T05:34:07.922Z,403.00
2023-01-17T05:35:29.073Z,403.00
2023-01-17T05:36:07.884Z,402.00
2023-01-17T05:37:07.931Z,402.00
2023-01-17T05:38:07.853Z,405.00
2023-01-17T05:39:08.047Z,404.00
2023-01-17T05:40:07.841Z,403.00
2023-01-17T05:42:17.180Z,452.00
2023-01-17T05:43:17.087Z,409.00
2023-01-17T05:44:18.138Z,407.00
2023-01-17T05:45:17.084Z,407.00
2023-01-17T05:46:38.314Z,404.00
2023-01-17T05:47:17.030Z,406.00
2023-01-17T05:48:17.184Z,404.00
2023-01-17T05:49:16.996Z,403.00
2023-01-17T05:50:17.121Z,405.00
2023-01-17T05:51:16.987Z,406.00
2023-01-17T05:52:17.057Z,407.00
2023-01-17T05:53:16.960Z,408.00
2023-01-17T05:54:16.996Z,406.00
2023-01-17T05:55:16.919Z,403.00
2023-01-17T05:56:17.033Z,404.00
2023-01-17T05:57:16.976Z,406.00
2023-01-17T05:58:17.984Z,405.00
2023-01-17T05:59:20.504Z,407.00
2023-01-17T06:00:17.851Z,408.00
2023-01-17T06:01:17.046Z,409.00
2023-01-17T06:02:16.836Z,410.00
2023-01-17T06:03:17.987Z,412.00
2023-01-17T06:04:16.886Z,412.00
2023-01-17T06:05:16.970Z,410.00
2023-01-17T06:06:16.765Z,411.00
2023-01-17T06:07:16.875Z,411.00
2023-01-17T06:08:16.764Z,410.00
2023-01-17T06:09:16.856Z,411.00
2023-01-17T06:10:16.725Z,411.00
2023-01-17T06:11:16.835Z,409.00
2023-01-17T06:12:16.685Z,410.00
2023-01-17T06:13:16.775Z,410.00
2023-01-17T06:14:16.671Z,410.00
2023-01-17T06:15:16.747Z,410.00
2023-01-17T06:16:16.686Z,411.00
2023-01-17T06:17:16.704Z,412.00
2023-01-17T06:18:16.660Z,412.00
2023-01-17T06:19:17.053Z,412.00
2023-01-17T06:20:16.584Z,411.00
2023-01-17T06:21:17.795Z,411.00
2023-01-17T06:22:16.553Z,411.00
2023-01-17T06:23:16.758Z,409.00
2023-01-17T06:24:16.532Z,410.00
2023-01-17T06:25:16.586Z,410.00
2023-01-17T06:26:16.508Z,407.00
2023-01-17T06:27:21.350Z,410.00
2023-01-17T06:28:16.473Z,409.00
2023-01-17T06:29:16.553Z,408.00
2023-01-17T06:30:16.452Z,409.00
2023-01-17T06:31:16.639Z,409.00
2023-01-17T06:32:16.430Z,409.00
2023-01-17T06:33:16.498Z,413.00
2023-01-17T06:34:16.405Z,411.00
2023-01-17T06:35:16.463Z,412.00
2023-01-17T06:36:16.371Z,413.00
2023-01-17T06:37:16.511Z,414.00
2023-01-17T06:38:16.353Z,414.00
2023-01-17T06:39:17.520Z,416.00
2023-01-17T06:40:16.348Z,416.00
2023-01-17T06:41:16.472Z,418.00
2023-01-17T06:42:16.325Z,419.00
2023-01-17T06:43:16.449Z,419.00
2023-01-17T06:44:16.260Z,420.00
2023-01-17T06:45:16.395Z,421.00
2023-01-17T06:46:16.321Z,423.00
2023-01-17T06:47:16.371Z,423.00
2023-01-17T06:48:16.250Z,422.00
2023-01-17T06:49:16.314Z,423.00
2023-01-17T06:50:16.208Z,424.00
2023-01-17T06:51:16.414Z,425.00
2023-01-17T06:52:16.161Z,426.00
2023-01-17T06:53:16.287Z,424.00
2023-01-17T06:54:16.143Z,423.00
2023-01-17T06:55:16.252Z,425.00
2023-01-17T06:56:16.109Z,427.00
2023-01-17T06:57:16.228Z,438.00
2023-01-17T06:58:16.084Z,436.00
2023-01-17T06:59:16.187Z,438.00
2023-01-17T07:00:16.059Z,435.00
2023-01-17T07:01:16.204Z,432.00
2023-01-17T07:02:16.043Z,431.00
2023-01-17T07:03:16.108Z,427.00
2023-01-17T07:04:16.008Z,427.00
2023-01-17T07:05:16.089Z,428.00
2023-01-17T07:06:15.979Z,429.00
2023-01-17T07:07:16.129Z,428.00
2023-01-17T07:08:16.008Z,426.00
2023-01-17T07:09:16.118Z,425.00
2023-01-17T07:10:15.957Z,424.00
2023-01-17T07:11:16.003Z,426.00
2023-01-17T07:12:15.899Z,425.00
2023-01-17T07:13:15.998Z,425.00
2023-01-17T07:14:15.878Z,422.00
2023-01-17T07:15:16.057Z,419.00
2023-01-17T07:16:15.883Z,420.00
2023-01-17T07:17:16.008Z,420.00
2023-01-17T07:18:15.844Z,421.00
2023-01-17T07:19:15.827Z,421.00
2023-01-17T07:20:15.806Z,422.00
2023-01-17T07:21:15.927Z,420.00
2023-01-17T07:22:15.788Z,419.00
2023-01-17T07:23:15.918Z,417.00
2023-01-17T07:24:15.752Z,419.00
2023-01-17T07:25:15.866Z,420.00
2023-01-17T07:26:15.716Z,420.00
2023-01-17T07:27:15.935Z,419.00
2023-01-17T07:28:15.696Z,419.00
2023-01-17T07:29:17.805Z,421.00
2023-01-17T07:30:15.667Z,423.00
2023-01-17T07:31:15.805Z,423.00
2023-01-17T07:32:15.645Z,421.00
2023-01-17T07:33:15.738Z,419.00
2023-01-17T07:34:15.684Z,421.00
2023-01-17T07:35:15.730Z,417.00
2023-01-17T07:36:15.595Z,419.00
2023-01-17T07:37:15.814Z,419.00
2023-01-17T07:38:15.564Z,416.00
2023-01-17T07:39:15.645Z,415.00
2023-01-17T07:40:15.564Z,415.00
2023-01-17T07:41:15.654Z,413.00
2023-01-17T07:42:15.551Z,412.00
2023-01-17T07:43:17.356Z,413.00
2023-01-17T07:44:15.496Z,414.00
2023-01-17T07:45:16.529Z,414.00
2023-01-17T07:46:15.537Z,413.00
2023-01-17T07:47:15.537Z,414.00
2023-01-17T07:48:15.451Z,415.00
2023-01-17T07:49:15.448Z,415.00
2023-01-17T07:50:15.403Z,418.00
2023-01-17T07:51:15.553Z,418.00
2023-01-17T07:52:17.465Z,413.00
2023-01-17T07:53:15.542Z,414.00
2023-01-17T07:54:15.370Z,416.00
2023-01-17T07:55:15.474Z,414.00
2023-01-17T07:56:15.322Z,416.00
2023-01-17T07:57:15.471Z,415.00
2023-01-17T07:58:15.302Z,415.00
2023-01-17T07:59:17.494Z,414.00
2023-01-17T08:00:15.272Z,416.00
2023-01-17T08:02:29.718Z,469.00
2023-01-17T08:03:25.993Z,427.00
2023-01-17T08:04:26.138Z,427.00
2023-01-17T08:05:25.965Z,422.00
2023-01-17T08:06:26.078Z,419.00
2023-01-17T08:07:25.943Z,418.00
2023-01-17T08:08:26.160Z,419.00
2023-01-17T08:09:25.919Z,418.00
2023-01-17T08:10:25.997Z,419.00
2023-01-17T08:11:25.894Z,418.00
2023-01-17T08:13:35.481Z,466.00
2023-01-17T08:14:35.251Z,422.00
2023-01-17T08:15:35.289Z,416.00
2023-01-17T08:16:36.292Z,412.00
2023-01-17T08:17:57.331Z,410.00
2023-01-17T08:18:35.340Z,408.00
2023-01-17T08:19:35.310Z,407.00
2023-01-17T08:20:35.183Z,406.00
2023-01-17T08:21:35.230Z,405.00
2023-01-17T08:22:35.156Z,406.00
2023-01-17T08:23:35.599Z,405.00
2023-01-17T08:24:35.125Z,405.00
2023-01-17T08:25:35.344Z,407.00
2023-01-17T08:26:35.089Z,407.00
2023-01-17T08:27:36.412Z,406.00
2023-01-17T08:28:35.080Z,403.00
2023-01-17T08:29:35.140Z,403.00
2023-01-17T08:30:35.051Z,405.00
2023-01-17T08:31:35.203Z,406.00
2023-01-17T08:32:35.030Z,405.00
2023-01-17T08:33:35.210Z,405.00
2023-01-17T08:34:35.005Z,406.00
2023-01-17T08:35:36.346Z,402.00
2023-01-17T08:36:35.730Z,402.00
2023-01-17T08:37:35.124Z,403.00
2023-01-17T08:38:34.946Z,404.00
2023-01-17T08:39:35.020Z,406.00
2023-01-17T08:40:34.916Z,407.00
2023-01-17T08:41:35.084Z,408.00
2023-01-17T08:42:34.960Z,407.00
2023-01-17T08:43:34.937Z,406.00
2023-01-17T08:44:34.858Z,406.00
2023-01-17T08:45:34.975Z,405.00
2023-01-17T08:46:34.919Z,406.00
2023-01-17T08:47:34.965Z,406.00
2023-01-17T08:48:34.816Z,403.00
2023-01-17T08:49:34.947Z,404.00
2023-01-17T08:50:34.794Z,403.00
2023-01-17T08:52:43.719Z,458.00
2023-01-17T08:53:43.524Z,414.00
2023-01-17T08:54:43.704Z,411.00
2023-01-17T08:55:43.513Z,409.00
2023-01-17T08:56:44.597Z,408.00
2023-01-17T08:57:43.493Z,407.00
2023-01-17T08:58:43.501Z,406.00
2023-01-17T08:59:43.462Z,402.00
2023-01-17T09:00:43.622Z,403.00
2023-01-17T09:01:43.596Z,405.00
2023-01-17T09:02:43.514Z,403.00
2023-01-17T09:03:43.407Z,401.00
2023-01-17T09:04:43.426Z,402.00
2023-01-17T09:05:43.389Z,400.00
2023-01-17T09:06:43.603Z,399.00
2023-01-17T09:07:43.353Z,400.00
2023-01-17T09:08:45.258Z,398.00
2023-01-17T09:09:43.335Z,396.00
2023-01-17T09:10:43.368Z,397.00
2023-01-17T09:11:43.304Z,397.00
2023-01-17T09:12:43.333Z,397.00
2023-01-17T09:13:43.293Z,395.00
2023-01-17T09:14:43.305Z,395.00
2023-01-17T09:15:43.256Z,397.00
2023-01-17T09:16:43.416Z,397.00
2023-01-17T09:17:43.225Z,396.00
2023-01-17T09:18:44.301Z,399.00
2023-01-17T09:19:43.193Z,403.00
2023-01-17T09:20:43.233Z,404.00
2023-01-17T09:21:43.171Z,405.00
2023-01-17T09:22:45.090Z,404.00
2023-01-17T09:23:43.172Z,401.00
2023-01-17T09:24:43.210Z,402.00
2023-01-17T09:25:43.111Z,404.00
2023-01-17T09:26:43.175Z,403.00
2023-01-17T09:27:43.081Z,402.00
2023-01-17T09:28:43.224Z,400.00
2023-01-17T09:29:43.066Z,399.00
2023-01-17T09:30:43.260Z,399.00
2023-01-17T09:31:43.031Z,399.00
2023-01-17T09:32:43.124Z,400.00
2023-01-17T09:33:43.103Z,399.00
2023-01-17T09:34:43.095Z,399.00
2023-01-17T09:35:42.989Z,400.00
2023-01-17T09:36:43.110Z,401.00
2023-01-17T09:37:42.965Z,401.00
2023-01-17T09:38:43.081Z,400.00
2023-01-17T09:39:42.953Z,400.00
2023-01-17T09:40:42.986Z,399.00
2023-01-17T09:41:42.917Z,399.00
2023-01-17T09:42:42.940Z,400.00
2023-01-17T09:43:42.884Z,401.00
2023-01-17T09:44:42.964Z,401.00
2023-01-17T09:45:42.889Z,403.00
2023-01-17T09:46:42.911Z,402.00
2023-01-17T09:47:42.828Z,402.00
2023-01-17T09:48:43.945Z,399.00
2023-01-17T09:49:42.814Z,401.00
2023-01-17T09:50:42.844Z,398.00
2023-01-17T09:51:42.777Z,400.00
2023-01-17T09:52:42.952Z,399.00
2023-01-17T09:53:42.770Z,399.00
2023-01-17T09:54:42.844Z,400.00
2023-01-17T09:55:42.731Z,400.00
2023-01-17T09:56:42.802Z,402.00
2023-01-17T09:57:42.712Z,401.00
2023-01-17T09:58:42.806Z,402.00
2023-01-17T09:59:45.386Z,401.00
2023-01-17T10:00:42.769Z,400.00
2023-01-17T10:01:42.852Z,401.00
2023-01-17T10:02:42.832Z,400.00
2023-01-17T10:03:42.686Z,400.00
2023-01-17T10:04:44.746Z,399.00
2023-01-17T10:05:42.633Z,398.00
2023-01-17T10:06:42.707Z,401.00
2023-01-17T10:07:42.567Z,400.00
2023-01-17T10:08:42.680Z,400.00
2023-01-17T10:09:42.552Z,402.00
2023-01-17T10:10:42.612Z,402.00
2023-01-17T10:11:42.528Z,403.00
2023-01-17T10:12:42.549Z,403.00
2023-01-17T10:13:42.488Z,404.00
2023-01-17T10:14:42.526Z,403.00
2023-01-17T10:15:42.478Z,405.00
2023-01-17T10:16:42.611Z,405.00
2023-01-17T10:17:42.436Z,404.00
2023-01-17T10:18:42.476Z,404.00
2023-01-17T10:19:42.406Z,405.00
2023-01-17T10:20:42.475Z,403.00
2023-01-17T10:21:42.407Z,402.00
2023-01-17T10:22:42.466Z,401.00
2023-01-17T10:23:42.356Z,400.00
2023-01-17T10:24:42.647Z,399.00
2023-01-17T10:25:42.335Z,399.00
2023-01-17T10:26:42.386Z,401.00
2023-01-17T10:27:42.312Z,401.00
2023-01-17T10:28:42.429Z,400.00
2023-01-17T10:29:42.305Z,401.00
2023-01-17T10:30:42.412Z,403.00
2023-01-17T10:31:42.258Z,397.00
2023-01-17T10:32:42.325Z,399.00
2023-01-17T10:33:42.248Z,395.00
2023-01-17T10:34:42.265Z,397.00
2023-01-17T10:35:42.225Z,399.00
2023-01-17T10:36:42.260Z,398.00
2023-01-17T10:37:42.185Z,397.00
2023-01-17T10:38:42.294Z,398.00
2023-01-17T10:39:42.145Z,395.00
2023-01-17T10:40:42.209Z,397.00
2023-01-17T10:41:42.145Z,396.00
2023-01-17T10:42:42.216Z,396.00
2023-01-17T10:43:42.113Z,397.00
2023-01-17T10:44:42.151Z,396.00
2023-01-17T10:45:42.145Z,391.00
2023-01-17T10:46:42.142Z,395.00
2023-01-17T10:47:42.066Z,397.00
2023-01-17T10:48:42.154Z,399.00
2023-01-17T10:49:42.041Z,398.00
2023-01-17T10:50:43.074Z,400.00
2023-01-17T10:51:42.005Z,401.00
2023-01-17T10:52:42.305Z,403.00
2023-01-17T10:53:42.035Z,404.00
2023-01-17T10:54:41.983Z,402.00
2023-01-17T10:55:41.951Z,404.00
2023-01-17T10:56:41.997Z,404.00
2023-01-17T10:57:41.929Z,402.00
2023-01-17T10:58:42.031Z,402.00
2023-01-17T10:59:41.903Z,399.00
2023-01-17T11:00:41.939Z,400.00
2023-01-17T11:01:42.001Z,398.00
2023-01-17T11:02:41.959Z,397.00
2023-01-17T11:03:41.841Z,398.00
2023-01-17T11:04:41.870Z,398.00
2023-01-17T11:05:41.833Z,400.00
2023-01-17T11:06:57.211Z,398.00
2023-01-17T11:07:42.789Z,398.00
2023-01-17T11:08:41.879Z,395.00
2023-01-17T11:09:41.763Z,398.00
2023-01-17T11:10:41.784Z,397.00
2023-01-17T11:11:41.762Z,398.00
2023-01-17T11:12:41.792Z,396.00
2023-01-17T11:13:41.712Z,395.00
2023-01-17T11:14:41.704Z,395.00
2023-01-17T11:15:41.716Z,395.00
2023-01-17T11:16:41.730Z,395.00
2023-01-17T11:17:41.676Z,395.00
2023-01-17T11:19:50.964Z,451.00
2023-01-17T11:20:50.849Z,397.00
2023-01-17T11:21:50.879Z,394.00
2023-01-17T11:22:50.849Z,393.00
2023-01-17T11:23:50.900Z,395.00
2023-01-17T11:24:50.851Z,395.00
2023-01-17T11:25:50.808Z,396.00
2023-01-17T11:26:50.769Z,396.00
2023-01-17T11:27:50.819Z,397.00
2023-01-17T11:28:50.770Z,397.00
2023-01-17T11:29:50.864Z,393.00
2023-01-17T11:30:50.745Z,390.00
2023-01-17T11:32:11.736Z,389.00
2023-01-17T11:32:50.689Z,388.00
2023-01-17T11:33:50.758Z,384.00
2023-01-17T11:34:50.693Z,386.00
2023-01-17T11:35:52.279Z,389.00
2023-01-17T11:36:50.647Z,392.00
2023-01-17T11:37:50.687Z,391.00
2023-01-17T11:38:50.617Z,392.00
2023-01-17T11:39:50.698Z,392.00
2023-01-17T11:40:50.636Z,392.00
2023-01-17T11:41:50.610Z,392.00
2023-01-17T11:42:50.559Z,393.00
2023-01-17T11:43:50.778Z,392.00
2023-01-17T11:44:50.548Z,393.00
2023-01-17T11:45:50.609Z,393.00
2023-01-17T11:46:50.542Z,393.00
2023-01-17T11:47:50.551Z,395.00
2023-01-17T11:48:50.480Z,394.00
2023-01-17T11:49:50.587Z,395.00
2023-01-17T11:50:50.457Z,393.00
2023-01-17T11:51:50.519Z,394.00
2023-01-17T11:52:50.448Z,395.00
2023-01-17T11:53:50.512Z,395.00
2023-01-17T11:54:50.402Z,396.00
2023-01-17T11:55:50.424Z,394.00
2023-01-17T11:56:50.372Z,398.00
2023-01-17T11:57:50.423Z,395.00
2023-01-17T11:58:50.348Z,394.00
2023-01-17T11:59:50.437Z,398.00
2023-01-17T12:00:50.328Z,397.00
2023-01-17T12:01:50.346Z,397.00
2023-01-17T12:02:50.288Z,398.00
2023-01-17T12:03:50.423Z,392.00
2023-01-17T12:04:50.295Z,393.00
2023-01-17T12:05:50.295Z,395.00
2023-01-17T12:06:57.671Z,392.00
2023-01-17T12:07:51.228Z,396.00
2023-01-17T12:08:50.288Z,395.00
2023-01-17T12:09:50.467Z,397.00
2023-01-17T12:10:50.280Z,395.00
2023-01-17T12:11:50.175Z,398.00
2023-01-17T12:12:50.217Z,398.00
2023-01-17T12:13:50.142Z,395.00
2023-01-17T12:14:50.239Z,397.00
2023-01-17T12:15:50.129Z,389.00
2023-01-17T12:16:50.209Z,394.00
2023-01-17T12:17:50.107Z,396.00
2023-01-17T12:18:50.169Z,391.00
2023-01-17T12:19:50.047Z,395.00
2023-01-17T12:20:50.077Z,396.00
2023-01-17T12:21:50.042Z,393.00
2023-01-17T12:22:50.147Z,395.00
2023-01-17T12:23:50.015Z,398.00
2023-01-17T12:24:51.031Z,392.00
2023-01-17T12:25:50.162Z,390.00
2023-01-17T12:26:50.020Z,392.00
2023-01-17T12:27:49.946Z,388.00
2023-01-17T12:28:49.976Z,390.00
2023-01-17T12:29:49.934Z,393.00
2023-01-17T12:30:49.945Z,394.00
2023-01-17T12:31:49.906Z,394.00
2023-01-17T12:32:49.969Z,393.00
2023-01-17T12:33:49.875Z,395.00
2023-01-17T12:34:49.918Z,394.00
2023-01-17T12:35:49.846Z,397.00
2023-01-17T12:36:49.927Z,398.00